sensor_id;sensor_type;location;lat;lon;timestamp;temperature;humidity
68867;SHT30;56451;44.804;20.476;2023-05-07T00:02:00;20.00;44.63
68867;SHT30;56451;44.804;20.476;2023-05-07T00:04:27;19.97;44.55
68867;SHT30;56451;44.804;20.476;2023-05-07T00:06:53;20.03;44.51
68867;SHT30;56451;44.804;20.476;2023-05-07T00:09:20;20.01;44.48
68867;SHT30;56451;44.804;20.476;2023-05-07T00:11:47;20.01;44.45
68867;SHT30;56451;44.804;20.476;2023-05-07T00:14:12;19.97;44.45
68867;SHT30;56451;44.804;20.476;2023-05-07T00:16:38;19.96;44.53
68867;SHT30;56451;44.804;20.476;2023-05-07T00:19:04;19.90;44.66
68867;SHT30;56451;44.804;20.476;2023-05-07T00:21:30;19.93;44.63
68867;SHT30;56451;44.804;20.476;2023-05-07T00:23:56;19.94;44.57
68867;SHT30;56451;44.804;20.476;2023-05-07T00:26:22;19.93;44.57
68867;SHT30;56451;44.804;20.476;2023-05-07T00:28:49;19.94;44.66
68867;SHT30;56451;44.804;20.476;2023-05-07T00:31:15;19.93;44.59
68867;SHT30;56451;44.804;20.476;2023-05-07T00:33:41;19.86;44.71
68867;SHT30;56451;44.804;20.476;2023-05-07T00:36:07;19.83;44.81
68867;SHT30;56451;44.804;20.476;2023-05-07T00:38:33;19.84;44.80
68867;SHT30;56451;44.804;20.476;2023-05-07T00:40:59;19.90;44.74
68867;SHT30;56451;44.804;20.476;2023-05-07T00:43:25;19.87;44.79
68867;SHT30;56451;44.804;20.476;2023-05-07T00:45:51;19.87;44.82
68867;SHT30;56451;44.804;20.476;2023-05-07T00:48:17;19.86;44.81
68867;SHT30;56451;44.804;20.476;2023-05-07T00:50:44;19.89;44.68
68867;SHT30;56451;44.804;20.476;2023-05-07T00:53:09;19.84;44.85
68867;SHT30;56451;44.804;20.476;2023-05-07T00:55:36;19.86;44.85
68867;SHT30;56451;44.804;20.476;2023-05-07T00:58:02;19.83;44.86
68867;SHT30;56451;44.804;20.476;2023-05-07T01:00:28;19.79;44.96
68867;SHT30;56451;44.804;20.476;2023-05-07T01:02:55;19.77;45.02
68867;SHT30;56451;44.804;20.476;2023-05-07T01:05:23;19.76;45.05
68867;SHT30;56451;44.804;20.476;2023-05-07T01:07:50;19.75;45.01
68867;SHT30;56451;44.804;20.476;2023-05-07T01:10:16;19.73;45.13
68867;SHT30;56451;44.804;20.476;2023-05-07T01:12:43;19.82;45.02
68867;SHT30;56451;44.804;20.476;2023-05-07T01:15:11;19.80;45.01
68867;SHT30;56451;44.804;20.476;2023-05-07T01:17:40;19.75;45.05
68867;SHT30;56451;44.804;20.476;2023-05-07T01:20:09;19.72;45.22
68867;SHT30;56451;44.804;20.476;2023-05-07T01:22:37;19.76;45.15
68867;SHT30;56451;44.804;20.476;2023-05-07T01:25:05;19.73;45.17
68867;SHT30;56451;44.804;20.476;2023-05-07T01:27:32;19.73;45.19
68867;SHT30;56451;44.804;20.476;2023-05-07T01:29:59;19.70;45.29
68867;SHT30;56451;44.804;20.476;2023-05-07T01:32:30;19.72;45.31
68867;SHT30;56451;44.804;20.476;2023-05-07T01:34:58;19.63;45.48
68867;SHT30;56451;44.804;20.476;2023-05-07T01:37:26;19.65;45.48
68867;SHT30;56451;44.804;20.476;2023-05-07T01:39:52;19.62;45.54
68867;SHT30;56451;44.804;20.476;2023-05-07T01:42:19;19.59;45.67
68867;SHT30;56451;44.804;20.476;2023-05-07T01:44:46;19.56;45.72
68867;SHT30;56451;44.804;20.476;2023-05-07T01:47:12;19.55;45.77
68867;SHT30;56451;44.804;20.476;2023-05-07T01:49:39;19.55;45.76
68867;SHT30;56451;44.804;20.476;2023-05-07T01:52:05;19.54;45.77
68867;SHT30;56451;44.804;20.476;2023-05-07T01:54:31;19.49;45.87
68867;SHT30;56451;44.804;20.476;2023-05-07T01:56:59;19.51;45.82
68867;SHT30;56451;44.804;20.476;2023-05-07T01:59:26;19.45;45.86
68867;SHT30;56451;44.804;20.476;2023-05-07T02:01:52;19.42;45.88
68867;SHT30;56451;44.804;20.476;2023-05-07T02:04:18;19.41;45.96
68867;SHT30;56451;44.804;20.476;2023-05-07T02:06:44;19.41;46.02
68867;SHT30;56451;44.804;20.476;2023-05-07T02:09:11;19.45;46.03
68867;SHT30;56451;44.804;20.476;2023-05-07T02:11:40;19.49;45.92
68867;SHT30;56451;44.804;20.476;2023-05-07T02:14:06;19.48;46.00
68867;SHT30;56451;44.804;20.476;2023-05-07T02:16:32;19.45;46.06
68867;SHT30;56451;44.804;20.476;2023-05-07T02:18:58;19.46;46.04
68867;SHT30;56451;44.804;20.476;2023-05-07T02:21:25;19.41;46.03
68867;SHT30;56451;44.804;20.476;2023-05-07T02:23:51;19.38;46.18
68867;SHT30;56451;44.804;20.476;2023-05-07T02:26:16;19.42;46.28
68867;SHT30;56451;44.804;20.476;2023-05-07T02:28:42;19.41;46.24
68867;SHT30;56451;44.804;20.476;2023-05-07T02:31:09;19.36;46.41
68867;SHT30;56451;44.804;20.476;2023-05-07T02:33:35;19.32;46.55
68867;SHT30;56451;44.804;20.476;2023-05-07T02:36:11;19.29;46.68
68867;SHT30;56451;44.804;20.476;2023-05-07T02:38:59;19.34;46.83
68867;SHT30;56451;44.804;20.476;2023-05-07T02:41:27;19.28;46.91
68867;SHT30;56451;44.804;20.476;2023-05-07T02:43:53;19.27;46.91
68867;SHT30;56451;44.804;20.476;2023-05-07T02:46:20;19.25;46.76
68867;SHT30;56451;44.804;20.476;2023-05-07T02:48:51;19.25;46.84
68867;SHT30;56451;44.804;20.476;2023-05-07T02:51:21;19.17;46.89
68867;SHT30;56451;44.804;20.476;2023-05-07T02:53:48;19.14;46.79
68867;SHT30;56451;44.804;20.476;2023-05-07T02:56:14;19.10;46.97
68867;SHT30;56451;44.804;20.476;2023-05-07T02:58:40;19.10;47.00
68867;SHT30;56451;44.804;20.476;2023-05-07T03:01:08;19.07;46.99
68867;SHT30;56451;44.804;20.476;2023-05-07T03:03:41;19.03;47.05
68867;SHT30;56451;44.804;20.476;2023-05-07T03:06:07;18.97;47.13
68867;SHT30;56451;44.804;20.476;2023-05-07T03:08:34;18.96;47.18
68867;SHT30;56451;44.804;20.476;2023-05-07T03:11:00;18.98;47.14
68867;SHT30;56451;44.804;20.476;2023-05-07T03:13:26;18.94;47.17
68867;SHT30;56451;44.804;20.476;2023-05-07T03:15:52;19.01;47.21
68867;SHT30;56451;44.804;20.476;2023-05-07T03:18:18;19.06;47.08
68867;SHT30;56451;44.804;20.476;2023-05-07T03:20:44;18.98;47.26
68867;SHT30;56451;44.804;20.476;2023-05-07T03:23:10;18.97;47.32
68867;SHT30;56451;44.804;20.476;2023-05-07T03:25:36;18.98;47.41
68867;SHT30;56451;44.804;20.476;2023-05-07T03:28:02;18.96;47.56
68867;SHT30;56451;44.804;20.476;2023-05-07T03:30:37;18.91;47.56
68867;SHT30;56451;44.804;20.476;2023-05-07T03:33:03;18.90;47.62
68867;SHT30;56451;44.804;20.476;2023-05-07T03:35:29;18.88;47.64
68867;SHT30;56451;44.804;20.476;2023-05-07T03:37:55;18.88;47.65
68867;SHT30;56451;44.804;20.476;2023-05-07T03:40:21;18.81;47.72
68867;SHT30;56451;44.804;20.476;2023-05-07T03:42:51;18.81;47.76
68867;SHT30;56451;44.804;20.476;2023-05-07T03:45:19;18.80;47.66
68867;SHT30;56451;44.804;20.476;2023-05-07T03:47:51;18.77;47.75
68867;SHT30;56451;44.804;20.476;2023-05-07T03:50:20;18.78;47.87
68867;SHT30;56451;44.804;20.476;2023-05-07T03:52:46;18.77;47.87
68867;SHT30;56451;44.804;20.476;2023-05-07T03:55:14;18.70;47.98
68867;SHT30;56451;44.804;20.476;2023-05-07T03:57:47;18.71;47.88
68867;SHT30;56451;44.804;20.476;2023-05-07T04:00:13;18.67;47.99
68867;SHT30;56451;44.804;20.476;2023-05-07T04:02:48;18.69;48.00
68867;SHT30;56451;44.804;20.476;2023-05-07T04:05:18;18.74;47.87
68867;SHT30;56451;44.804;20.476;2023-05-07T04:07:48;18.70;47.92
68867;SHT30;56451;44.804;20.476;2023-05-07T04:10:18;18.70;48.00
68867;SHT30;56451;44.804;20.476;2023-05-07T04:12:46;18.70;48.06
68867;SHT30;56451;44.804;20.476;2023-05-07T04:15:17;18.70;48.16
68867;SHT30;56451;44.804;20.476;2023-05-07T04:17:43;18.73;48.17
68867;SHT30;56451;44.804;20.476;2023-05-07T04:20:14;18.70;48.26
68867;SHT30;56451;44.804;20.476;2023-05-07T04:22:41;18.71;48.35
68867;SHT30;56451;44.804;20.476;2023-05-07T04:25:08;18.74;48.39
68867;SHT30;56451;44.804;20.476;2023-05-07T04:27:35;18.76;48.41
68867;SHT30;56451;44.804;20.476;2023-05-07T04:30:03;18.77;48.33
68867;SHT30;56451;44.804;20.476;2023-05-07T04:32:34;18.77;48.41
68867;SHT30;56451;44.804;20.476;2023-05-07T04:35:01;18.77;48.43
68867;SHT30;56451;44.804;20.476;2023-05-07T04:37:27;18.78;48.52
68867;SHT30;56451;44.804;20.476;2023-05-07T04:39:53;18.81;48.60
68867;SHT30;56451;44.804;20.476;2023-05-07T04:42:21;18.83;48.60
68867;SHT30;56451;44.804;20.476;2023-05-07T04:44:46;18.83;48.59
68867;SHT30;56451;44.804;20.476;2023-05-07T04:47:13;18.83;48.65
68867;SHT30;56451;44.804;20.476;2023-05-07T04:49:39;18.84;48.49
68867;SHT30;56451;44.804;20.476;2023-05-07T04:52:06;18.94;48.36
68867;SHT30;56451;44.804;20.476;2023-05-07T04:54:32;18.96;48.32
68867;SHT30;56451;44.804;20.476;2023-05-07T04:56:58;19.00;48.28
68867;SHT30;56451;44.804;20.476;2023-05-07T04:59:25;19.07;48.11
68867;SHT30;56451;44.804;20.476;2023-05-07T05:01:51;19.07;48.18
68867;SHT30;56451;44.804;20.476;2023-05-07T05:04:17;19.06;48.13
68867;SHT30;56451;44.804;20.476;2023-05-07T05:06:43;19.14;48.15
68867;SHT30;56451;44.804;20.476;2023-05-07T05:09:10;19.15;47.94
68867;SHT30;56451;44.804;20.476;2023-05-07T05:11:37;19.21;47.87
68867;SHT30;56451;44.804;20.476;2023-05-07T05:14:03;19.19;47.88
68867;SHT30;56451;44.804;20.476;2023-05-07T05:16:29;19.22;47.96
68867;SHT30;56451;44.804;20.476;2023-05-07T05:18:55;19.27;47.98
68867;SHT30;56451;44.804;20.476;2023-05-07T05:21:21;19.29;47.88
68867;SHT30;56451;44.804;20.476;2023-05-07T05:23:50;19.34;47.88
68867;SHT30;56451;44.804;20.476;2023-05-07T05:26:20;19.34;47.89
68867;SHT30;56451;44.804;20.476;2023-05-07T05:28:47;19.38;47.95
68867;SHT30;56451;44.804;20.476;2023-05-07T05:31:14;19.45;47.87
68867;SHT30;56451;44.804;20.476;2023-05-07T05:33:40;19.48;47.78
68867;SHT30;56451;44.804;20.476;2023-05-07T05:36:09;19.49;47.65
68867;SHT30;56451;44.804;20.476;2023-05-07T05:38:36;19.48;47.68
68867;SHT30;56451;44.804;20.476;2023-05-07T05:41:03;19.52;47.61
68867;SHT30;56451;44.804;20.476;2023-05-07T05:43:29;19.54;47.59
68867;SHT30;56451;44.804;20.476;2023-05-07T05:45:56;19.59;47.45
68867;SHT30;56451;44.804;20.476;2023-05-07T05:48:22;19.55;47.45
68867;SHT30;56451;44.804;20.476;2023-05-07T05:50:49;19.59;47.53
68867;SHT30;56451;44.804;20.476;2023-05-07T05:53:17;19.62;47.67
68867;SHT30;56451;44.804;20.476;2023-05-07T05:55:43;19.67;47.51
68867;SHT30;56451;44.804;20.476;2023-05-07T05:58:10;19.72;47.51
68867;SHT30;56451;44.804;20.476;2023-05-07T06:00:40;19.82;47.35
68867;SHT30;56451;44.804;20.476;2023-05-07T06:03:06;19.86;47.56
68867;SHT30;56451;44.804;20.476;2023-05-07T06:05:33;19.93;47.54
68867;SHT30;56451;44.804;20.476;2023-05-07T06:07:59;19.92;47.54
68867;SHT30;56451;44.804;20.476;2023-05-07T06:10:30;19.94;47.56
68867;SHT30;56451;44.804;20.476;2023-05-07T06:12:56;19.96;47.49
68867;SHT30;56451;44.804;20.476;2023-05-07T06:15:22;20.00;47.45
68867;SHT30;56451;44.804;20.476;2023-05-07T06:17:48;20.07;47.55
68867;SHT30;56451;44.804;20.476;2023-05-07T06:20:15;20.13;47.46
68867;SHT30;56451;44.804;20.476;2023-05-07T06:22:41;20.20;47.34
68867;SHT30;56451;44.804;20.476;2023-05-07T06:25:09;20.24;47.16
68867;SHT30;56451;44.804;20.476;2023-05-07T06:27:35;20.25;47.12
68867;SHT30;56451;44.804;20.476;2023-05-07T06:30:01;20.27;47.32
68867;SHT30;56451;44.804;20.476;2023-05-07T06:32:28;20.33;47.19
68867;SHT30;56451;44.804;20.476;2023-05-07T06:34:54;20.38;47.06
68867;SHT30;56451;44.804;20.476;2023-05-07T06:37:21;20.42;46.95
68867;SHT30;56451;44.804;20.476;2023-05-07T06:39:57;20.48;46.98
68867;SHT30;56451;44.804;20.476;2023-05-07T06:42:23;20.49;47.02
68867;SHT30;56451;44.804;20.476;2023-05-07T06:44:50;20.54;47.15
68867;SHT30;56451;44.804;20.476;2023-05-07T06:47:17;20.56;47.10
68867;SHT30;56451;44.804;20.476;2023-05-07T06:49:46;20.65;46.83
68867;SHT30;56451;44.804;20.476;2023-05-07T06:52:15;20.64;46.53
68867;SHT30;56451;44.804;20.476;2023-05-07T06:54:42;20.64;46.69
68867;SHT30;56451;44.804;20.476;2023-05-07T06:57:08;20.69;46.94
68867;SHT30;56451;44.804;20.476;2023-05-07T06:59:34;20.72;47.04
68867;SHT30;56451;44.804;20.476;2023-05-07T07:02:00;20.79;47.13
68867;SHT30;56451;44.804;20.476;2023-05-07T07:04:27;20.82;47.18
68867;SHT30;56451;44.804;20.476;2023-05-07T07:07:00;20.88;47.35
68867;SHT30;56451;44.804;20.476;2023-05-07T07:09:27;20.98;47.34
68867;SHT30;56451;44.804;20.476;2023-05-07T07:11:54;20.99;47.17
68867;SHT30;56451;44.804;20.476;2023-05-07T07:14:20;21.04;47.29
68867;SHT30;56451;44.804;20.476;2023-05-07T07:16:49;21.11;47.33
68867;SHT30;56451;44.804;20.476;2023-05-07T07:19:17;21.13;47.42
68867;SHT30;56451;44.804;20.476;2023-05-07T07:21:45;21.19;47.33
68867;SHT30;56451;44.804;20.476;2023-05-07T07:24:13;21.23;47.14
68867;SHT30;56451;44.804;20.476;2023-05-07T07:26:45;21.26;46.84
68867;SHT30;56451;44.804;20.476;2023-05-07T07:29:11;21.31;46.41
68867;SHT30;56451;44.804;20.476;2023-05-07T07:31:38;21.40;45.71
68867;SHT30;56451;44.804;20.476;2023-05-07T07:34:04;21.47;45.28
68867;SHT30;56451;44.804;20.476;2023-05-07T07:36:30;21.50;45.16
68867;SHT30;56451;44.804;20.476;2023-05-07T07:38:56;21.55;45.21
68867;SHT30;56451;44.804;20.476;2023-05-07T07:41:22;21.61;45.03
68867;SHT30;56451;44.804;20.476;2023-05-07T07:43:49;21.67;44.61
68867;SHT30;56451;44.804;20.476;2023-05-07T07:46:15;21.74;44.43
68867;SHT30;56451;44.804;20.476;2023-05-07T07:48:42;21.79;44.45
68867;SHT30;56451;44.804;20.476;2023-05-07T07:51:08;21.85;44.38
68867;SHT30;56451;44.804;20.476;2023-05-07T07:53:34;21.89;44.14
68867;SHT30;56451;44.804;20.476;2023-05-07T07:56:00;21.94;43.99
68867;SHT30;56451;44.804;20.476;2023-05-07T07:58:30;21.98;44.24
68867;SHT30;56451;44.804;20.476;2023-05-07T08:00:57;22.06;44.08
68867;SHT30;56451;44.804;20.476;2023-05-07T08:03:24;22.12;43.82
68867;SHT30;56451;44.804;20.476;2023-05-07T08:05:54;22.17;43.98
68867;SHT30;56451;44.804;20.476;2023-05-07T08:08:21;22.28;43.82
68867;SHT30;56451;44.804;20.476;2023-05-07T08:10:47;22.32;43.62
68867;SHT30;56451;44.804;20.476;2023-05-07T08:13:21;22.40;43.55
68867;SHT30;56451;44.804;20.476;2023-05-07T08:15:47;22.42;43.34
68867;SHT30;56451;44.804;20.476;2023-05-07T08:18:14;22.45;43.12
68867;SHT30;56451;44.804;20.476;2023-05-07T08:20:41;22.47;43.11
68867;SHT30;56451;44.804;20.476;2023-05-07T08:23:13;22.53;42.56
68867;SHT30;56451;44.804;20.476;2023-05-07T08:25:40;22.57;42.75
68867;SHT30;56451;44.804;20.476;2023-05-07T08:28:08;22.63;42.34
68867;SHT30;56451;44.804;20.476;2023-05-07T08:30:34;22.70;41.98
68867;SHT30;56451;44.804;20.476;2023-05-07T08:33:00;22.73;42.14
68867;SHT30;56451;44.804;20.476;2023-05-07T08:35:26;22.78;42.16
68867;SHT30;56451;44.804;20.476;2023-05-07T08:37:54;22.84;41.92
68867;SHT30;56451;44.804;20.476;2023-05-07T08:40:25;22.91;41.68
68867;SHT30;56451;44.804;20.476;2023-05-07T08:42:52;22.97;41.51
68867;SHT30;56451;44.804;20.476;2023-05-07T08:45:19;23.01;41.60
68867;SHT30;56451;44.804;20.476;2023-05-07T08:47:51;23.04;41.11
68867;SHT30;56451;44.804;20.476;2023-05-07T08:50:20;23.04;41.07
68867;SHT30;56451;44.804;20.476;2023-05-07T08:52:47;23.08;40.97
68867;SHT30;56451;44.804;20.476;2023-05-07T08:55:14;23.16;40.86
68867;SHT30;56451;44.804;20.476;2023-05-07T08:57:41;23.19;40.88
68867;SHT30;56451;44.804;20.476;2023-05-07T09:00:09;23.28;41.07
68867;SHT30;56451;44.804;20.476;2023-05-07T09:02:37;23.32;41.06
68867;SHT30;56451;44.804;20.476;2023-05-07T09:05:04;23.39;40.89
68867;SHT30;56451;44.804;20.476;2023-05-07T09:07:30;23.45;40.91
68867;SHT30;56451;44.804;20.476;2023-05-07T09:09:57;23.46;40.53
68867;SHT30;56451;44.804;20.476;2023-05-07T09:12:24;23.51;40.87
68867;SHT30;56451;44.804;20.476;2023-05-07T09:14:50;23.59;40.39
68867;SHT30;56451;44.804;20.476;2023-05-07T09:17:17;23.63;39.92
68867;SHT30;56451;44.804;20.476;2023-05-07T09:19:44;23.63;39.66
68867;SHT30;56451;44.804;20.476;2023-05-07T09:22:11;23.69;40.15
68867;SHT30;56451;44.804;20.476;2023-05-07T09:24:49;23.72;40.22
68867;SHT30;56451;44.804;20.476;2023-05-07T09:27:17;23.74;40.34
68867;SHT30;56451;44.804;20.476;2023-05-07T09:29:44;23.80;39.75
68867;SHT30;56451;44.804;20.476;2023-05-07T09:32:10;23.86;39.72
68867;SHT30;56451;44.804;20.476;2023-05-07T09:34:36;23.89;39.99
68867;SHT30;56451;44.804;20.476;2023-05-07T09:37:04;23.97;40.08
68867;SHT30;56451;44.804;20.476;2023-05-07T09:39:45;24.01;40.01
68867;SHT30;56451;44.804;20.476;2023-05-07T09:42:13;24.08;40.02
68867;SHT30;56451;44.804;20.476;2023-05-07T09:44:41;24.10;40.02
68867;SHT30;56451;44.804;20.476;2023-05-07T09:47:16;24.16;39.60
68867;SHT30;56451;44.804;20.476;2023-05-07T09:49:47;24.25;39.12
68867;SHT30;56451;44.804;20.476;2023-05-07T09:52:14;24.29;39.44
68867;SHT30;56451;44.804;20.476;2023-05-07T09:54:46;24.34;39.69
68867;SHT30;56451;44.804;20.476;2023-05-07T09:57:15;24.38;39.20
68867;SHT30;56451;44.804;20.476;2023-05-07T09:59:45;24.47;39.22
68867;SHT30;56451;44.804;20.476;2023-05-07T10:02:15;24.49;38.96
68867;SHT30;56451;44.804;20.476;2023-05-07T10:04:50;24.54;38.88
68867;SHT30;56451;44.804;20.476;2023-05-07T10:07:20;24.59;38.09
68867;SHT30;56451;44.804;20.476;2023-05-07T10:09:50;24.68;38.12
68867;SHT30;56451;44.804;20.476;2023-05-07T10:12:27;24.64;38.01
68867;SHT30;56451;44.804;20.476;2023-05-07T10:14:54;24.64;38.43
68867;SHT30;56451;44.804;20.476;2023-05-07T10:17:23;24.65;38.43
68867;SHT30;56451;44.804;20.476;2023-05-07T10:19:49;24.69;38.48
68867;SHT30;56451;44.804;20.476;2023-05-07T10:22:17;24.66;38.15
68867;SHT30;56451;44.804;20.476;2023-05-07T10:24:47;24.66;37.84
68867;SHT30;56451;44.804;20.476;2023-05-07T10:27:17;24.62;38.08
68867;SHT30;56451;44.804;20.476;2023-05-07T10:32:59;24.52;38.39
68867;SHT30;56451;44.804;20.476;2023-05-07T10:35:38;24.57;38.35
68867;SHT30;56451;44.804;20.476;2023-05-07T10:38:06;24.62;38.05
68867;SHT30;56451;44.804;20.476;2023-05-07T10:40:35;24.59;38.21
68867;SHT30;56451;44.804;20.476;2023-05-07T10:43:05;24.59;38.00
68867;SHT30;56451;44.804;20.476;2023-05-07T10:45:37;24.69;37.96
68867;SHT30;56451;44.804;20.476;2023-05-07T10:48:08;24.71;37.71
68867;SHT30;56451;44.804;20.476;2023-05-07T10:50:35;24.68;38.03
68867;SHT30;56451;44.804;20.476;2023-05-07T10:56:24;24.83;37.40
68867;SHT30;56451;44.804;20.476;2023-05-07T11:02:04;24.97;36.85
68867;SHT30;56451;44.804;20.476;2023-05-07T11:04:37;24.97;36.93
68867;SHT30;56451;44.804;20.476;2023-05-07T11:07:24;24.99;35.04
68867;SHT30;56451;44.804;20.476;2023-05-07T11:15:09;25.03;35.73
68867;SHT30;56451;44.804;20.476;2023-05-07T11:17:57;25.12;35.31
68867;SHT30;56451;44.804;20.476;2023-05-07T11:20:49;25.13;35.64
68867;SHT30;56451;44.804;20.476;2023-05-07T11:26:26;25.20;34.16
68867;SHT30;56451;44.804;20.476;2023-05-07T11:28:52;25.20;32.96
68867;SHT30;56451;44.804;20.476;2023-05-07T11:31:22;25.17;32.65
68867;SHT30;56451;44.804;20.476;2023-05-07T11:33:49;25.23;31.05
68867;SHT30;56451;44.804;20.476;2023-05-07T11:36:19;25.28;30.91
68867;SHT30;56451;44.804;20.476;2023-05-07T11:38:48;25.28;31.25
68867;SHT30;56451;44.804;20.476;2023-05-07T11:41:13;25.33;30.93
68867;SHT30;56451;44.804;20.476;2023-05-07T11:43:54;25.37;32.08
68867;SHT30;56451;44.804;20.476;2023-05-07T11:46:20;25.38;32.32
68867;SHT30;56451;44.804;20.476;2023-05-07T11:48:47;25.47;31.60
68867;SHT30;56451;44.804;20.476;2023-05-07T11:51:13;25.48;30.50
68867;SHT30;56451;44.804;20.476;2023-05-07T11:53:44;25.60;31.12
68867;SHT30;56451;44.804;20.476;2023-05-07T11:56:12;25.65;31.32
68867;SHT30;56451;44.804;20.476;2023-05-07T11:58:39;25.63;30.91
68867;SHT30;56451;44.804;20.476;2023-05-07T12:01:07;25.65;30.91
68867;SHT30;56451;44.804;20.476;2023-05-07T12:03:35;25.64;29.80
68867;SHT30;56451;44.804;20.476;2023-05-07T12:06:05;25.72;30.14
68867;SHT30;56451;44.804;20.476;2023-05-07T12:08:32;25.81;30.39
68867;SHT30;56451;44.804;20.476;2023-05-07T12:10:58;25.89;31.05
68867;SHT30;56451;44.804;20.476;2023-05-07T12:13:25;25.95;30.97
68867;SHT30;56451;44.804;20.476;2023-05-07T12:15:52;25.99;31.23
68867;SHT30;56451;44.804;20.476;2023-05-07T12:18:18;26.03;30.45
68867;SHT30;56451;44.804;20.476;2023-05-07T12:20:45;25.93;29.52
68867;SHT30;56451;44.804;20.476;2023-05-07T12:23:12;25.98;30.13
68867;SHT30;56451;44.804;20.476;2023-05-07T12:25:39;26.05;30.70
68867;SHT30;56451;44.804;20.476;2023-05-07T12:28:07;26.06;31.43
68867;SHT30;56451;44.804;20.476;2023-05-07T12:30:40;26.11;31.77
68867;SHT30;56451;44.804;20.476;2023-05-07T12:33:06;26.18;32.05
68867;SHT30;56451;44.804;20.476;2023-05-07T12:35:37;26.26;31.71
68867;SHT30;56451;44.804;20.476;2023-05-07T12:38:16;26.18;31.80
68867;SHT30;56451;44.804;20.476;2023-05-07T12:40:45;26.18;31.46
68867;SHT30;56451;44.804;20.476;2023-05-07T12:43:17;26.23;30.90
68867;SHT30;56451;44.804;20.476;2023-05-07T12:45:44;26.33;30.28
68867;SHT30;56451;44.804;20.476;2023-05-07T12:48:11;26.32;27.34
68867;SHT30;56451;44.804;20.476;2023-05-07T12:50:37;26.30;28.86
68867;SHT30;56451;44.804;20.476;2023-05-07T12:53:07;26.35;28.54
68867;SHT30;56451;44.804;20.476;2023-05-07T12:55:44;26.41;30.50
68867;SHT30;56451;44.804;20.476;2023-05-07T12:58:42;26.43;31.48
68867;SHT30;56451;44.804;20.476;2023-05-07T13:01:07;26.47;31.44
68867;SHT30;56451;44.804;20.476;2023-05-07T13:03:36;26.47;31.13
68867;SHT30;56451;44.804;20.476;2023-05-07T13:06:07;26.44;31.50
68867;SHT30;56451;44.804;20.476;2023-05-07T13:08:40;26.54;31.05
68867;SHT30;56451;44.804;20.476;2023-05-07T13:11:09;26.64;30.49
68867;SHT30;56451;44.804;20.476;2023-05-07T13:13:36;26.74;29.83
68867;SHT30;56451;44.804;20.476;2023-05-07T13:16:04;26.87;30.05
68867;SHT30;56451;44.804;20.476;2023-05-07T13:18:32;26.99;30.32
68867;SHT30;56451;44.804;20.476;2023-05-07T13:20:59;27.09;30.22
68867;SHT30;56451;44.804;20.476;2023-05-07T13:23:26;27.15;29.80
68867;SHT30;56451;44.804;20.476;2023-05-07T13:25:52;27.19;30.03
68867;SHT30;56451;44.804;20.476;2023-05-07T13:28:19;27.28;29.59
68867;SHT30;56451;44.804;20.476;2023-05-07T13:30:46;27.36;29.55
68867;SHT30;56451;44.804;20.476;2023-05-07T13:33:12;27.38;29.36
68867;SHT30;56451;44.804;20.476;2023-05-07T13:35:38;27.31;29.23
68867;SHT30;56451;44.804;20.476;2023-05-07T13:38:04;27.32;29.55
68867;SHT30;56451;44.804;20.476;2023-05-07T13:40:31;27.35;29.70
68867;SHT30;56451;44.804;20.476;2023-05-07T13:42:58;27.42;29.59
68867;SHT30;56451;44.804;20.476;2023-05-07T13:45:24;27.47;29.30
68867;SHT30;56451;44.804;20.476;2023-05-07T13:47:51;27.57;28.97
68867;SHT30;56451;44.804;20.476;2023-05-07T13:50:17;27.63;29.62
68867;SHT30;56451;44.804;20.476;2023-05-07T13:52:44;27.67;29.61
68867;SHT30;56451;44.804;20.476;2023-05-07T13:55:23;27.69;30.07
68867;SHT30;56451;44.804;20.476;2023-05-07T13:58:00;27.63;29.74
68867;SHT30;56451;44.804;20.476;2023-05-07T14:00:27;27.69;30.22
68867;SHT30;56451;44.804;20.476;2023-05-07T14:02:54;27.73;30.19
68867;SHT30;56451;44.804;20.476;2023-05-07T14:05:21;27.87;29.28
68867;SHT30;56451;44.804;20.476;2023-05-07T14:07:50;27.84;28.73
68867;SHT30;56451;44.804;20.476;2023-05-07T14:10:18;27.94;26.53
68867;SHT30;56451;44.804;20.476;2023-05-07T14:12:45;27.96;26.49
68867;SHT30;56451;44.804;20.476;2023-05-07T14:15:13;28.01;26.19
68867;SHT30;56451;44.804;20.476;2023-05-07T14:17:39;28.03;27.89
68867;SHT30;56451;44.804;20.476;2023-05-07T14:20:05;28.08;27.96
68867;SHT30;56451;44.804;20.476;2023-05-07T14:22:35;28.14;28.39
68867;SHT30;56451;44.804;20.476;2023-05-07T14:25:00;28.15;28.59
68867;SHT30;56451;44.804;20.476;2023-05-07T14:27:26;28.13;28.68
68867;SHT30;56451;44.804;20.476;2023-05-07T14:29:52;28.20;28.05
68867;SHT30;56451;44.804;20.476;2023-05-07T14:32:18;28.25;27.54
68867;SHT30;56451;44.804;20.476;2023-05-07T14:34:45;28.25;27.86
68867;SHT30;56451;44.804;20.476;2023-05-07T14:37:12;28.27;28.20
68867;SHT30;56451;44.804;20.476;2023-05-07T14:39:38;28.25;28.23
68867;SHT30;56451;44.804;20.476;2023-05-07T14:42:04;28.21;28.31
68867;SHT30;56451;44.804;20.476;2023-05-07T14:44:30;28.18;28.16
68867;SHT30;56451;44.804;20.476;2023-05-07T14:46:57;28.20;27.73
68867;SHT30;56451;44.804;20.476;2023-05-07T14:49:23;28.13;27.99
68867;SHT30;56451;44.804;20.476;2023-05-07T14:51:49;28.13;28.13
68867;SHT30;56451;44.804;20.476;2023-05-07T14:54:15;28.13;28.00
68867;SHT30;56451;44.804;20.476;2023-05-07T14:56:41;28.11;27.58
68867;SHT30;56451;44.804;20.476;2023-05-07T14:59:08;28.13;27.68
68867;SHT30;56451;44.804;20.476;2023-05-07T15:01:35;28.20;28.01
68867;SHT30;56451;44.804;20.476;2023-05-07T15:04:03;28.22;28.67
68867;SHT30;56451;44.804;20.476;2023-05-07T15:06:30;28.20;28.84
68867;SHT30;56451;44.804;20.476;2023-05-07T15:08:57;28.25;28.90
68867;SHT30;56451;44.804;20.476;2023-05-07T15:11:22;28.28;29.10
68867;SHT30;56451;44.804;20.476;2023-05-07T15:13:49;28.29;29.18
68867;SHT30;56451;44.804;20.476;2023-05-07T15:16:15;28.34;29.23
68867;SHT30;56451;44.804;20.476;2023-05-07T15:18:41;28.42;29.08
68867;SHT30;56451;44.804;20.476;2023-05-07T15:21:07;28.37;28.91
68867;SHT30;56451;44.804;20.476;2023-05-07T15:23:33;28.41;29.04
68867;SHT30;56451;44.804;20.476;2023-05-07T15:25:59;28.45;28.77
68867;SHT30;56451;44.804;20.476;2023-05-07T15:28:27;28.44;28.10
68867;SHT30;56451;44.804;20.476;2023-05-07T15:30:56;28.40;27.44
68867;SHT30;56451;44.804;20.476;2023-05-07T15:33:22;28.35;27.96
68867;SHT30;56451;44.804;20.476;2023-05-07T15:35:48;28.31;27.48
68867;SHT30;56451;44.804;20.476;2023-05-07T15:38:14;28.27;27.26